Time;durP1;ratioP1;P1;durP2;ratioP2;P2;SDS_P1;SDS_P2;PMS_P1;PMS_P2;Temp;Humidity;BMP_temperature;BMP_pressure;BME280_temperature;BME280_humidity;BME280_pressure;Samples;Min_cycle;Max_cycle;Signal;HPM_P1;HPM_P2
2021/08/06 00:03:37;;;;;;;9.65;3.20;;;;;;;15.52;83.04;98540.81;4845367;29;20055;-74
2021/08/06 00:10:01;;;;;;;11.32;2.60;;;;;;;15.54;83.31;98534.97;4884226;29;20096;-76
2021/08/06 00:13:37;;;;;;;9.18;2.33;;;;;;;15.60;82.69;98535.53;4880109;29;20033;-76
2021/08/06 00:25:57;;;;;;;7.32;2.80;;;;;;;15.37;82.48;98494.69;4997413;28;20037;-76
2021/08/06 00:32:10;;;;;;;10.50;2.78;;;;;;;15.47;82.75;98508.00;4998420;28;20056;-76
2021/08/06 00:49:08;;;;;;;7.25;2.70;;;;;;;15.62;82.74;98500.97;4994164;28;20069;-75
2021/08/06 00:55:21;;;;;;;18.70;2.50;;;;;;;15.60;82.91;98495.00;4915573;29;20051;-74
2021/08/06 00:58:30;;;;;;;9.48;2.58;;;;;;;15.70;82.95;98502.81;4910704;29;20128;-75
2021/08/06 01:01:38;;;;;;;9.95;2.20;;;;;;;15.72;82.82;98505.22;4899131;29;20079;-76
2021/08/06 01:08:32;;;;;;;;;;;;;;;;;;;;;
2021/08/06 01:12:30;;;;;;;;;;;;;;;;;;;;;
2021/08/06 02:08:27;;;;;;;8.82;1.17;;;;;;;15.81;83.86;98472.88;4898307;29;20047;-75
2021/08/06 02:34:24;;;;;;;2.65;0.80;;;;;;;15.79;84.85;98469.63;4772549;29;20043;-78
2021/08/06 02:40:32;;;;;;;3.83;1.45;;;;;;;15.65;84.54;98441.63;4827036;29;20063;-76
2021/08/06 02:43:45;;;;;;;;;;;;;;;;;;;;;
2021/08/06 02:51:00;;;;;;;4.45;0.93;;;;;;;15.77;84.74;98458.13;4938472;29;20042;-75
2021/08/06 03:00:24;;;;;;;3.30;1.20;;;;;;;15.47;85.26;98443.84;4881231;29;20100;-78
2021/08/06 03:03:39;;;;;;;6.32;1.27;;;;;;;15.60;85.51;98458.41;4957576;28;20106;-81
2021/08/06 03:20:05;;;;;;;;;;;;;;;;;;;;;
2021/08/06 03:26:12;;;;;;;6.88;1.45;;;;;;;15.58;85.41;98453.25;4848822;29;20041;-78
2021/08/06 03:31:59;;;;;;;2.78;0.98;;;;;;;15.64;84.94;98449.09;4919795;28;20054;-79
2021/08/06 03:38:30;;;;;;;4.10;1.17;;;;;;;15.79;84.99;98455.84;4932795;28;20059;-77
2021/08/06 03:48:57;;;;;;;13.90;1.63;;;;;;;15.77;84.50;98455.38;4981316;28;20027;-77
2021/08/06 03:56:14;;;;;;;;;;;;;;;;;;;;;
2021/08/06 04:24:57;;;;;;;14.77;1.35;;;;;;;15.85;83.47;98487.53;4937936;29;20023;-77
2021/08/06 04:31:51;;;;;;;3.17;1.05;;;;;;;15.86;83.01;98489.13;4938102;29;20119;-79
2021/08/06 04:48:09;;;;;;;;;;;;;;;15.99;82.33;98500.13;4970181;28;20050;-76
2021/08/06 05:11:02;;;;;;;1.73;0.80;;;;;;;16.00;81.07;98515.50;4796378;29;20051;-75
2021/08/06 05:14:09;;;;;;;;;;;;;;;;;;;;;
2021/08/06 05:27:54;;;;;;;6.32;1.08;;;;;;;16.14;79.79;98504.91;4715382;30;20052;-77
2021/08/06 05:41:48;;;;;;;;;;;;;;;;;;;;;
2021/08/06 05:50:59;;;;;;;6.75;0.82;;;;;;;16.30;79.31;98507.72;4821647;29;20033;-75
2021/08/06 06:03:42;;;;;;;3.60;1.10;;;;;;;16.27;79.18;98537.97;4864367;29;20038;-76
2021/08/06 06:13:03;;;;;;;1.65;0.60;;;;;;;16.44;78.87;98543.19;4824386;29;20103;-73
2021/08/06 06:15:50;;;;;;;1.30;0.68;;;;;;;16.41;78.35;98530.06;4878960;29;20040;-72
2021/08/06 06:18:44;;;;;;;7.38;0.93;;;;;;;16.53;78.43;98532.78;4903333;29;20030;-74
2021/08/06 06:21:36;;;;;;;7.97;0.73;;;;;;;16.57;78.37;98539.22;4934628;28;20464;-73
2021/08/06 06:24:27;;;;;;;2.78;0.50;;;;;;;16.64;77.91;98524.00;4967192;28;20043;-74
2021/08/06 06:31:46;;;;;;;1.73;0.57;;;;;;;16.78;77.50;98565.78;4895905;29;20127;-73
2021/08/06 06:34:47;;;;;;;1.65;0.70;;;;;;;16.72;77.89;98550.66;4883574;29;20037;-72
2021/08/06 06:37:34;;;;;;;1.48;0.50;;;;;;;16.86;78.04;98566.78;4860220;29;20232;-72
2021/08/06 06:46:52;;;;;;;4.28;0.60;;;;;;;17.01;76.74;98567.97;4964985;28;20082;-75
2021/08/06 06:49:18;;;;;;;1.80;0.70;;;;;;;16.93;77.30;98562.28;4935628;28;20055;-75
2021/08/06 06:52:53;;;;;;;1.10;0.63;;;;;;;17.00;77.36;98585.72;4950739;29;20065;-76
2021/08/06 06:55:40;;;;;;;3.50;0.50;;;;;;;17.21;77.11;98588.22;4938779;29;20040;-74
2021/08/06 07:01:28;;;;;;;1.08;0.68;;;;;;;17.20;76.27;98598.50;4964202;28;20046;-78
2021/08/06 07:04:58;;;;;;;1.23;0.40;;;;;;;17.36;76.43;98606.78;4961741;28;20035;-75
2021/08/06 07:07:26;;;;;;;3.05;0.90;;;;;;;17.52;75.93;98603.22;4965539;28;20046;-76
2021/08/06 07:09:56;;;;;;;2.95;0.70;;;;;;;17.61;75.06;98621.22;4949503;29;20038;-76
2021/08/06 07:16:16;;;;;;;4.55;0.47;;;;;;;17.84;73.52;98626.09;4864674;29;20086;-75
2021/08/06 07:35:32;;;;;;;0.73;0.50;;;;;;;18.27;71.14;98651.22;4999605;28;20045;-74
2021/08/06 07:38:01;;;;;;;4.95;0.70;;;;;;;18.17;70.25;98644.28;4965524;28;20025;-72
2021/08/06 07:40:27;;;;;;;2.38;0.75;;;;;;;18.18;70.25;98651.44;4995920;28;20033;-73
2021/08/06 07:42:54;;;;;;;3.22;0.63;;;;;;;18.21;69.91;98660.94;4979261;28;20030;-72
2021/08/06 07:45:21;;;;;;;5.82;0.45;;;;;;;18.25;70.68;98662.66;4993474;28;20045;-73
2021/08/06 07:47:46;;;;;;;5.30;0.95;;;;;;;18.30;69.85;98676.19;4992755;28;20113;-74
2021/08/06 07:50:12;;;;;;;1.35;0.70;;;;;;;18.35;69.15;98654.94;4977082;28;20123;-73
2021/08/06 07:52:39;;;;;;;2.00;0.65;;;;;;;18.43;69.00;98665.03;4997607;28;20030;-75
2021/08/06 07:55:15;;;;;;;3.67;0.70;;;;;;;18.56;68.10;98663.72;5001458;28;20109;-76
2021/08/06 07:57:45;;;;;;;4.00;0.60;;;;;;;18.64;68.68;98662.69;4984103;28;20033;-75
2021/08/06 08:00:11;;;;;;;4.13;0.57;;;;;;;18.93;68.00;98685.47;4963136;28;20115;-79
2021/08/06 08:02:44;;;;;;;1.98;0.95;;;;;;;19.09;67.41;98673.53;5000649;28;20057;-75
2021/08/06 08:05:23;;;;;;;1.38;0.75;;;;;;;19.14;67.04;98678.75;4992599;28;20046;-79
2021/08/06 08:07:55;;;;;;;0.60;0.40;;;;;;;19.16;66.93;98684.75;4959104;28;20034;-75
2021/08/06 08:10:29;;;;;;;3.45;0.75;;;;;;;19.09;66.36;98690.16;4965141;28;20030;-77
2021/08/06 08:12:54;;;;;;;1.13;0.68;;;;;;;18.95;66.35;98683.16;4976527;28;20038;-73
2021/08/06 08:16:23;;;;;;;4.82;0.90;;;;;;;18.83;66.37;98691.56;4995737;28;20057;-75
2021/08/06 08:19:24;;;;;;;6.03;0.70;;;;;;;18.58;66.92;98686.28;4959746;28;20100;-74
2021/08/06 08:22:10;;;;;;;6.50;0.88;;;;;;;18.46;66.50;98691.97;5020719;23;20490;-73
2021/08/06 08:24:46;;;;;;;3.33;0.57;;;;;;;18.65;66.71;98703.06;4980004;28;20081;-73
2021/08/06 08:27:33;;;;;;;12.18;1.17;;;;;;;18.61;66.01;98673.69;4976830;28;20034;-73
2021/08/06 08:30:00;;;;;;;3.17;0.63;;;;;;;18.92;65.44;98700.47;4996442;28;20018;-72
2021/08/06 08:32:25;;;;;;;6.22;0.90;;;;;;;18.95;64.58;98710.84;4978324;28;20026;-73
2021/08/06 08:34:51;;;;;;;2.38;0.68;;;;;;;18.93;63.94;98707.63;4943134;28;20066;-72
2021/08/06 08:37:16;;;;;;;1.35;0.70;;;;;;;18.93;64.35;98715.94;4955119;28;20077;-72
2021/08/06 08:39:42;;;;;;;3.97;0.90;;;;;;;19.01;64.78;98726.00;4976117;28;20027;-72
2021/08/06 08:42:08;;;;;;;3.50;1.00;;;;;;;18.92;64.54;98716.31;4995364;28;20492;-72
2021/08/06 08:44:36;;;;;;;2.78;0.98;;;;;;;18.99;65.17;98722.00;4980601;28;20060;-73
2021/08/06 08:47:04;;;;;;;2.30;0.60;;;;;;;19.07;64.02;98731.25;5000970;28;20038;-73
2021/08/06 08:49:32;;;;;;;3.10;0.98;;;;;;;19.04;63.34;98731.97;5001640;28;20037;-72
2021/08/06 08:51:58;;;;;;;3.53;0.75;;;;;;;18.97;63.20;98736.22;4984261;28;20121;-74
2021/08/06 08:54:24;;;;;;;2.13;1.00;;;;;;;19.07;63.15;98717.41;4977647;28;20021;-72
2021/08/06 08:56:50;;;;;;;1.30;0.80;;;;;;;19.29;63.24;98741.59;4950835;28;20115;-77
2021/08/06 08:59:15;;;;;;;4.40;1.20;;;;;;;19.28;61.49;98737.22;4943150;28;20034;-73
2021/08/06 09:01:41;;;;;;;1.77;0.90;;;;;;;19.25;59.83;98740.72;4977734;28;20036;-74
2021/08/06 09:04:30;;;;;;;2.83;1.00;;;;;;;19.12;60.87;98742.84;4996310;28;20011;-74
2021/08/06 09:06:57;;;;;;;1.40;0.90;;;;;;;19.16;61.79;98756.78;4992004;28;20042;-74
2021/08/06 09:09:27;;;;;;;2.88;0.80;;;;;;;19.17;62.20;98759.19;4985713;28;20053;-73
2021/08/06 09:12:07;;;;;;;2.30;0.85;;;;;;;19.17;63.00;98758.38;4985687;28;20034;-73
2021/08/06 09:14:34;;;;;;;3.30;0.90;;;;;;;19.44;62.47;98775.16;4993798;28;20038;-73
2021/08/06 09:17:09;;;;;;;5.65;1.50;;;;;;;19.74;60.93;98752.31;5005886;28;20026;-73
2021/08/06 09:19:40;;;;;;;3.85;1.35;;;;;;;19.97;59.75;98753.16;5002967;28;20076;-74
2021/08/06 09:22:12;;;;;;;3.05;0.98;;;;;;;20.13;59.11;98766.13;5009405;28;20054;-74
2021/08/06 09:25:18;;;;;;;6.70;0.80;;;;;;;20.34;58.81;98780.34;5007518;28;20144;-73
2021/08/06 09:27:45;;;;;;;;;;;;;;;20.41;57.29;98782.44;4924537;29;20075;-74
2021/08/06 09:30:31;;;;;;;1.67;0.73;;;;;;;20.17;56.96;98791.97;4928702;29;19965;-74
2021/08/06 09:32:57;;;;;;;2.05;1.40;;;;;;;20.10;55.75;98772.41;4975779;28;20053;-74
2021/08/06 09:35:26;;;;;;;3.83;1.35;;;;;;;20.17;56.72;98783.63;5001078;28;20031;-75
2021/08/06 09:37:53;;;;;;;2.65;1.00;;;;;;;20.32;56.59;98788.22;5004693;28;20022;-75
2021/08/06 09:40:22;;;;;;;3.35;0.95;;;;;;;20.19;56.38;98786.84;4967388;28;20108;-73
2021/08/06 09:42:51;;;;;;;1.55;0.93;;;;;;;19.99;56.29;98775.81;5000031;28;20105;-74
2021/08/06 09:45:17;;;;;;;2.50;1.20;;;;;;;19.84;57.36;98785.03;4999049;28;20048;-74
2021/08/06 09:47:45;;;;;;;4.97;1.35;;;;;;;19.66;56.94;98785.47;4981458;28;20073;-77
2021/08/06 09:50:17;;;;;;;6.68;1.40;;;;;;;19.56;57.52;98788.84;4966329;28;20404;-76
2021/08/06 09:52:48;;;;;;;1.52;1.23;;;;;;;19.61;58.36;98801.59;4976755;28;20097;-74
2021/08/06 09:55:35;;;;;;;6.38;1.23;;;;;;;19.79;57.89;98786.13;4983392;28;20048;-74
2021/08/06 09:58:12;;;;;;;6.40;1.50;;;;;;;19.76;57.59;98786.06;4982705;28;20500;-75
2021/08/06 10:00:49;;;;;;;2.30;1.40;;;;;;;19.83;57.32;98803.66;4995412;28;20014;-73
2021/08/06 10:03:27;;;;;;;2.45;1.10;;;;;;;19.92;56.49;98789.53;4984117;28;20037;-75
2021/08/06 10:06:13;;;;;;;2.80;1.27;;;;;;;20.15;56.56;98799.84;4980675;28;20030;-74
2021/08/06 10:08:40;;;;;;;4.55;1.13;;;;;;;20.25;56.29;98796.44;4993205;28;20370;-74
2021/08/06 10:11:07;;;;;;;1.58;1.10;;;;;;;20.47;54.81;98796.78;4964125;28;20042;-74
2021/08/06 10:13:33;;;;;;;4.25;1.08;;;;;;;20.50;54.26;98796.03;4979530;28;20049;-74
2021/08/06 10:15:58;;;;;;;1.45;1.20;;;;;;;20.63;54.17;98794.66;5001945;28;20046;-76
2021/08/06 10:18:27;;;;;;;1.85;0.80;;;;;;;20.84;54.48;98801.78;4989447;28;20020;-76
2021/08/06 10:20:53;;;;;;;3.58;1.05;;;;;;;21.08;54.34;98794.94;4969749;28;20051;-75
2021/08/06 10:23:19;;;;;;;4.70;1.00;;;;;;;21.33;52.53;98808.38;4979338;28;20496;-75
2021/08/06 10:25:44;;;;;;;2.78;1.15;;;;;;;21.38;50.80;98803.28;4986259;28;20081;-75
2021/08/06 10:28:10;;;;;;;5.90;0.70;;;;;;;21.27;51.12;98800.38;4983992;28;20035;-74
2021/08/06 10:30:38;;;;;;;4.43;0.73;;;;;;;21.30;52.34;98809.91;4967295;28;20026;-74
2021/08/06 10:33:22;;;;;;;2.22;0.82;;;;;;;22.02;52.38;98804.38;5001416;28;20037;-77
2021/08/06 10:36:05;;;;;;;9.90;0.75;;;;;;;23.14;49.08;98812.47;4969798;28;20044;-76
2021/08/06 10:38:35;;;;;;;2.90;0.75;;;;;;;23.26;44.73;98794.59;4980187;28;20025;-74
2021/08/06 10:41:10;;;;;;;1.73;0.60;;;;;;;23.13;45.50;98832.34;4975341;28;20050;-75
2021/08/06 10:43:38;;;;;;;2.33;0.68;;;;;;;22.64;45.94;98814.91;4982052;28;20033;-74
2021/08/06 10:46:12;;;;;;;2.35;0.90;;;;;;;22.18;47.25;98801.34;4976750;28;20026;-73
2021/08/06 10:49:15;;;;;;;0.73;0.73;;;;;;;22.05;48.15;98812.78;4974368;28;20027;-74
2021/08/06 10:51:47;;;;;;;5.53;1.17;;;;;;;22.66;47.16;98826.44;4940968;28;20069;-76
2021/08/06 10:54:40;;;;;;;2.92;0.68;;;;;;;23.86;46.33;98814.75;4982577;28;20030;-76
2021/08/06 10:57:49;;;;;;;2.10;1.08;;;;;;;25.09;41.83;98812.75;4998363;28;20071;-76
2021/08/06 11:00:39;;;;;;;1.73;0.80;;;;;;;25.32;39.55;98803.09;4995168;28;20098;-75
2021/08/06 11:03:34;;;;;;;1.30;0.68;;;;;;;25.30;40.22;98813.88;5000491;28;20026;-75
2021/08/06 11:06:32;;;;;;;4.05;0.90;;;;;;;25.27;40.46;98835.84;4964444;28;20049;-74
2021/08/06 11:08:58;;;;;;;1.80;1.02;;;;;;;25.37;40.39;98822.28;4986661;28;20022;-74
2021/08/06 11:11:56;;;;;;;3.90;0.73;;;;;;;25.93;38.59;98814.81;4985861;28;20021;-75
2021/08/06 11:14:48;;;;;;;1.73;0.77;;;;;;;25.99;38.75;98828.38;4985922;28;20037;-78
2021/08/06 11:17:32;;;;;;;1.92;0.90;;;;;;;26.39;38.69;98806.53;4980765;28;20034;-75
2021/08/06 11:20:16;;;;;;;1.40;0.75;;;;;;;27.11;36.74;98817.06;4990754;28;20029;-75
2021/08/06 11:22:48;;;;;;;3.58;0.75;;;;;;;27.68;34.57;98822.00;4983429;28;20038;-75
2021/08/06 11:25:26;;;;;;;2.45;1.05;;;;;;;28.38;32.96;98812.19;4984309;28;20030;-76
2021/08/06 11:27:56;;;;;;;1.23;0.60;;;;;;;29.13;32.82;98836.63;4995910;28;20037;-75
2021/08/06 11:30:33;;;;;;;6.43;0.82;;;;;;;29.65;31.16;98816.28;4979103;28;20383;-74
2021/08/06 11:33:11;;;;;;;1.55;0.80;;;;;;;29.88;30.65;98828.72;4984520;28;20168;-76
2021/08/06 11:35:45;;;;;;;4.63;0.82;;;;;;;29.51;30.37;98813.78;4984892;28;20109;-75
2021/08/06 11:41:17;;;;;;;1.55;0.70;;;;;;;28.54;31.43;98819.16;4992311;28;20045;-74
2021/08/06 11:43:43;;;;;;;1.90;1.02;;;;;;;28.19;31.74;98819.31;4996521;28;20042;-73
2021/08/06 11:46:13;;;;;;;1.10;0.45;;;;;;;27.66;33.03;98841.28;4980968;28;20031;-75
2021/08/06 11:48:52;;;;;;;2.92;0.60;;;;;;;28.10;33.17;98807.81;4998524;28;20027;-78
2021/08/06 11:51:25;;;;;;;1.08;0.63;;;;;;;28.89;31.54;98814.16;4994677;28;20018;-74
2021/08/06 11:53:51;;;;;;;1.20;0.50;;;;;;;28.62;30.27;98812.25;4979779;28;20084;-74
2021/08/06 11:56:22;;;;;;;2.63;0.70;;;;;;;27.49;31.42;98808.63;4995408;28;20081;-76
2021/08/06 11:58:48;;;;;;;1.42;0.73;;;;;;;26.30;33.90;98815.41;4993436;28;20025;-76
2021/08/06 12:01:31;;;;;;;2.42;0.60;;;;;;;25.40;36.04;98815.88;4980888;28;20034;-76
2021/08/06 12:03:57;;;;;;;0.90;0.47;;;;;;;24.77;37.56;98813.63;4992709;28;20045;-74
2021/08/06 12:06:36;;;;;;;7.55;0.75;;;;;;;24.28;38.79;98820.78;4994387;28;20532;-75
2021/08/06 12:09:06;;;;;;;3.47;0.98;;;;;;;23.80;40.79;98819.88;4981398;28;20061;-75
2021/08/06 12:11:43;;;;;;;2.50;1.00;;;;;;;23.38;42.77;98838.06;4997725;28;20120;-75
2021/08/06 12:14:09;;;;;;;1.17;0.75;;;;;;;23.22;44.26;98845.94;4993287;28;20084;-74
2021/08/06 12:16:39;;;;;;;2.35;0.55;;;;;;;23.46;44.23;98828.53;4983389;28;20424;-74
2021/08/06 12:19:06;;;;;;;3.20;0.45;;;;;;;23.49;44.35;98833.31;4991420;28;20033;-74
2021/08/06 12:21:40;;;;;;;1.63;0.77;;;;;;;23.12;45.94;98839.13;4995967;28;20487;-74
2021/08/06 12:24:11;;;;;;;2.27;0.90;;;;;;;22.55;48.01;98843.06;4996162;28;20022;-75
2021/08/06 12:26:43;;;;;;;0.88;0.35;;;;;;;22.23;51.37;98837.22;4999535;28;20784;-74
2021/08/06 12:29:17;;;;;;;2.63;1.05;;;;;;;22.86;51.64;98838.13;4995540;28;20058;-74
2021/08/06 12:31:51;;;;;;;9.80;0.80;;;;;;;23.93;49.07;98853.03;4993531;28;20053;-73
2021/08/06 12:34:31;;;;;;;3.80;1.15;;;;;;;25.48;45.78;98851.03;4969922;28;20061;-73
2021/08/06 12:36:57;;;;;;;1.70;0.88;;;;;;;25.84;43.98;98850.06;4989640;28;20116;-74
2021/08/06 12:39:23;;;;;;;6.63;0.88;;;;;;;25.75;44.29;98836.50;5003132;28;20412;-74
2021/08/06 12:41:50;;;;;;;1.05;0.65;;;;;;;26.52;43.81;98848.84;4972851;28;20050;-75
2021/08/06 12:44:29;;;;;;;4.47;0.90;;;;;;;28.11;41.32;98847.94;4998280;28;20053;-79
2021/08/06 13:07:58;;;;;;;2.88;0.82;;;;;;;31.35;30.90;98837.56;5001643;28;20041;-76
2021/08/06 21:51:49;;;;;;;3.88;0.93;;;;;;;14.45;77.27;98879.75;5257819;23;20047;-77
2021/08/06 22:18:34;;;;;;;;;;;;;;;;;;;;;
2021/08/06 22:21:02;;;;;;;3.45;0.90;;;;;;;14.87;77.17;98861.81;4903718;29;20099;-77
2021/08/06 22:23:28;;;;;;;8.35;1.20;;;;;;;14.92;76.50;98853.34;4909608;29;20084;-75
2021/08/06 22:25:53;;;;;;;8.80;1.20;;;;;;;14.99;76.48;98846.16;4952710;28;20039;-76
2021/08/06 22:28:19;;;;;;;10.90;1.60;;;;;;;15.00;76.67;98844.25;4945849;29;20027;-73
2021/08/06 22:30:48;;;;;;;4.72;1.27;;;;;;;14.98;76.53;98841.00;4947624;29;20035;-76
2021/08/06 22:36:50;;;;;;;7.95;1.02;;;;;;;15.04;77.01;98844.38;4898749;29;20056;-74
2021/08/06 22:39:28;;;;;;;5.32;1.33;;;;;;;15.03;77.04;98838.06;4885031;29;20131;-72
2021/08/06 22:43:05;;;;;;;7.07;1.58;;;;;;;15.11;77.16;98841.91;4871940;29;20041;-73
2021/08/06 23:00:38;;;;;;;6.22;1.27;;;;;;;14.92;78.26;98825.84;4979372;28;20073;-77
2021/08/06 23:13:08;;;;;;;3.53;1.25;;;;;;;14.99;78.33;98804.09;4892334;29;20388;-76
2021/08/06 23:29:47;;;;;;;4.22;1.15;;;;;;;15.06;78.49;98809.06;4755039;30;20131;-75
2021/08/06 23:32:53;;;;;;;1.42;0.85;;;;;;;15.02;78.74;98803.41;4755942;30;20078;-76
2021/08/06 23:35:31;;;;;;;5.35;1.05;;;;;;;15.03;78.38;98798.75;4801690;29;20072;-77
2021/08/06 23:38:44;;;;;;;2.90;0.90;;;;;;;14.88;78.11;98789.09;4788307;29;20034;-77
2021/08/06 23:41:21;;;;;;;1.20;0.50;;;;;;;14.95;79.39;98805.91;4806216;29;20043;-79
2021/08/06 23:47:52;;;;;;;2.13;0.70;;;;;;;14.87;79.58;98795.78;4748677;30;20060;-78
2021/08/06 23:50:18;;;;;;;3.22;0.60;;;;;;;15.02;78.96;98814.44;4806882;29;20038;-78
2021/08/06 23:53:40;;;;;;;3.85;0.85;;;;;;;15.14;78.91;98811.75;4809891;29;20037;-77
